Time,TemperatureF,DewpointF,PressureIn,WindDirection,WindDirectionDegrees,WindSpeedMPH,WindSpeedGustMPH,Humidity,HourlyPrecipIn,Conditions,Clouds,dailyrainin,SoftwareType,DateUTC
2013-05-01 00:01:00,70.7,54.2,29.84,SW,225,8.3,8.3,56,0.00,,,0.00,WUHU21623XXSP,2013-05-01 05:01:00,
2013-05-01 00:06:00,70.5,54.5,29.85,SW,225,3.4,8.3,57,0.00,,,0.00,WUHU21623XXSP,2013-05-01 05:06:00,
2013-05-01 00:11:00,70.5,54.5,29.85,SSW,202,5.6,5.6,57,0.00,,,0.00,WUHU21623XXSP,2013-05-01 05:11:00,
2013-05-01 00:16:00,70.9,54.9,29.84,SSW,202,0.0,10.5,57,0.00,,,0.00,WUHU21623XXSP,2013-05-01 05:16:00,
2013-05-01 00:21:00,70.9,54.9,29.85,SW,225,6.0,10.5,57,0.00,,,0.00,WUHU21623XXSP,2013-05-01 05:21:00,
2013-05-01 00:26:00,70.9,54.9,29.85,SW,225,13.0,13.0,57,0.00,,,0.00,WUHU21623XXSP,2013-05-01 05:26:00,
2013-05-01 00:31:00,70.9,54.9,29.85,WSW,247,4.5,13.0,57,0.00,,,0.00,WUHU21623XXSP,2013-05-01 05:31:00,
2013-05-01 00:36:00,70.9,54.9,29.86,SW,225,6.3,12.1,57,0.00,,,0.00,WUHU21623XXSP,2013-05-01 05:36:00,
2013-05-01 00:41:00,70.9,54.9,29.85,SSW,202,3.8,6.3,57,0.00,,,0.00,WUHU21623XXSP,2013-05-01 05:41:00,
2013-05-01 00:46:00,70.9,54.9,29.86,South,180,4.3,5.6,57,0.00,,,0.00,WUHU21623XXSP,2013-05-01 05:46:00,
2013-05-01 00:51:00,70.9,54.9,29.86,SSE,157,1.6,6.9,57,0.00,,,0.00,WUHU21623XXSP,2013-05-01 05:51:00,
2013-05-01 00:56:00,70.9,54.9,29.85,SW,225,10.3,12.8,57,0.00,,,0.00,WUHU21623XXSP,2013-05-01 05:56:00,
2013-05-01 01:01:00,70.9,54.9,29.85,South,180,6.3,12.8,57,0.00,,,0.00,WUHU21623XXSP,2013-05-01 06:01:00,
2013-05-01 01:06:00,70.5,54.5,29.85,WSW,247,1.6,11.9,57,0.00,,,0.00,WUHU21623XXSP,2013-05-01 06:06:00,
2013-05-01 01:11:00,70.3,54.9,29.86,South,180,8.3,9.6,58,0.00,,,0.00,WUHU21623XXSP,2013-05-01 06:11:00,
2013-05-01 01:16:00,70.2,54.7,29.85,South,180,4.5,8.3,58,0.00,,,0.00,WUHU21623XXSP,2013-05-01 06:16:00,
2013-05-01 01:21:00,70.2,54.7,29.86,SW,225,8.3,10.1,58,0.00,,,0.00,WUHU21623XXSP,2013-05-01 06:21:00,
2013-05-01 01:26:00,69.8,54.9,29.87,WSW,247,5.4,10.1,59,0.00,,,0.00,WUHU21623XXSP,2013-05-01 06:26:00,
2013-05-01 01:31:00,68.7,54.3,29.88,WNW,292,5.4,5.4,60,0.00,,,0.00,WUHU21623XXSP,2013-05-01 06:31:00,
2013-05-01 01:36:00,68.2,53.8,29.88,WNW,292,0.0,5.4,60,0.00,,,0.00,WUHU21623XXSP,2013-05-01 06:36:00,
2013-05-01 01:41:00,68.2,54.2,29.88,NW,315,0.7,4.0,61,0.00,,,0.00,WUHU21623XXSP,2013-05-01 06:41:00,
2013-05-01 01:46:00,67.6,53.7,29.88,West,270,0.0,4.0,61,0.00,,,0.00,WUHU21623XXSP,2013-05-01 06:46:00,
2013-05-01 01:51:00,66.7,53.3,29.88,NW,315,0.0,0.0,62,0.00,,,0.00,WUHU21623XXSP,2013-05-01 06:51:00,
2013-05-01 01:56:00,66.0,52.6,29.88,NW,315,0.0,0.0,62,0.00,,,0.00,WUHU21623XXSP,2013-05-01 06:56:00,
2013-05-01 02:01:00,66.0,53.0,29.88,NNW,337,0.0,0.0,63,0.00,,,0.00,WUHU21623XXSP,2013-05-01 07:01:00,
2013-05-01 02:06:00,65.5,52.9,29.89,NNW,337,0.0,0.0,64,0.00,,,0.00,WUHU21623XXSP,2013-05-01 07:06:00,
2013-05-01 02:11:00,65.1,52.6,29.88,NNW,337,0.0,0.0,64,0.00,,,0.00,WUHU21623XXSP,2013-05-01 07:11:00,
2013-05-01 02:16:00,64.8,52.8,29.89,NNW,337,0.0,0.0,65,0.00,,,0.00,WUHU21623XXSP,2013-05-01 07:16:00,
2013-05-01 02:21:00,64.0,52.4,29.89,SSE,157,0.0,0.0,66,0.00,,,0.00,WUHU21623XXSP,2013-05-01 07:21:00,
2013-05-01 02:26:00,63.1,52.0,29.88,South,180,0.0,0.0,67,0.00,,,0.00,WUHU21623XXSP,2013-05-01 07:26:00,
2013-05-01 02:31:00,62.4,52.1,29.88,NE,45,0.0,0.0,69,0.00,,,0.00,WUHU21623XXSP,2013-05-01 07:31:00,
2013-05-01 02:36:00,62.8,52.0,29.89,North,0,0.0,0.0,68,0.00,,,0.00,WUHU21623XXSP,2013-05-01 07:36:00,
2013-05-01 02:41:00,62.8,52.0,29.89,NNE,22,0.0,0.0,68,0.00,,,0.00,WUHU21623XXSP,2013-05-01 07:41:00,
2013-05-01 02:46:00,62.4,50.1,29.89,NE,45,4.7,4.7,64,0.00,,,0.00,WUHU21623XXSP,2013-05-01 07:46:00,
2013-05-01 02:51:00,61.9,49.9,29.89,NNW,337,0.0,4.7,63,0.00,,,0.00,WUHU21623XXSP,2013-05-01 07:51:00,
2013-05-01 02:56:00,61.5,48.4,29.89,NNE,22,1.1,1.1,62,0.00,,,0.00,WUHU21623XXSP,2013-05-01 07:56:00,
2013-05-01 03:01:00,61.3,48.3,29.90,North,0,0.0,1.1,62,0.00,,,0.00,WUHU21623XXSP,2013-05-01 08:01:00,
2013-05-01 03:06:00,60.4,47.4,29.90,NE,45,0.0,2.5,62,0.00,,,0.00,WUHU21623XXSP,2013-05-01 08:06:00,
2013-05-01 03:11:00,60.1,47.0,29.90,NNE,22,0.0,4.9,62,0.00,,,0.00,WUHU21623XXSP,2013-05-01 08:11:00,
2013-05-01 03:16:00,59.9,46.9,29.90,NNE,22,3.6,4.9,62,0.00,,,0.00,WUHU21623XXSP,2013-05-01 08:16:00,
2013-05-01 03:21:00,59.5,46.3,29.90,NNE,22,0.0,3.6,61,0.00,,,0.00,WUHU21623XXSP,2013-05-01 08:21:00,
2013-05-01 03:26:00,59.4,46.1,29.91,North,0,0.0,0.0,61,0.00,,,0.00,WUHU21623XXSP,2013-05-01 08:26:00,
2013-05-01 03:31:00,58.8,45.8,29.91,North,0,2.9,4.0,62,0.00,,,0.00,WUHU21623XXSP,2013-05-01 08:31:00,
2013-05-01 03:36:00,58.6,45.6,29.91,NNE,22,0.0,4.0,62,0.00,,,0.00,WUHU21623XXSP,2013-05-01 08:36:00,
2013-05-01 03:41:00,58.5,45.5,29.91,NNE,22,4.0,4.0,62,0.00,,,0.00,WUHU21623XXSP,2013-05-01 08:41:00,
2013-05-01 03:46:00,58.3,45.3,29.90,NNE,22,4.0,4.0,62,0.00,,,0.00,WUHU21623XXSP,2013-05-01 08:46:00,
2013-05-01 03:51:00,58.3,45.3,29.90,WSW,247,0.0,4.0,62,0.00,,,0.00,WUHU21623XXSP,2013-05-01 08:51:00,
2013-05-01 03:56:00,57.9,45.0,29.91,NNW,337,0.0,0.0,62,0.00,,,0.00,WUHU21623XXSP,2013-05-01 08:56:00,
2013-05-01 04:01:00,57.7,45.0,29.91,NW,315,0.0,0.0,62,0.00,,,0.00,WUHU21623XXSP,2013-05-01 09:01:00,
2013-05-01 04:06:00,57.4,44.9,29.91,NNW,337,0.0,1.3,63,0.00,,,0.00,WUHU21623XXSP,2013-05-01 09:06:00,
2013-05-01 04:11:00,57.4,44.9,29.92,NNW,337,0.0,1.3,63,0.00,,,0.00,WUHU21623XXSP,2013-05-01 09:11:00,
2013-05-01 04:16:00,57.0,44.5,29.92,North,0,0.0,0.0,63,0.00,,,0.00,WUHU21623XXSP,2013-05-01 09:16:00,
2013-05-01 04:21:00,57.0,44.1,29.93,NNW,337,0.0,2.7,62,0.00,,,0.00,WUHU21623XXSP,2013-05-01 09:21:00,
2013-05-01 04:26:00,56.8,44.3,29.93,NNE,22,0.0,2.7,63,0.00,,,0.00,WUHU21623XXSP,2013-05-01 09:26:00,
2013-05-01 04:31:00,56.5,44.0,29.93,WNW,292,0.0,0.0,63,0.00,,,0.00,WUHU21623XXSP,2013-05-01 09:31:00,
2013-05-01 04:36:00,56.1,44.1,29.93,NNW,337,0.0,0.0,64,0.00,,,0.00,WUHU21623XXSP,2013-05-01 09:36:00,
2013-05-01 04:41:00,55.8,43.7,29.93,NE,45,0.0,0.0,64,0.00,,,0.00,WUHU21623XXSP,2013-05-01 09:41:00,
2013-05-01 04:46:00,55.4,43.8,29.93,ENE,67,0.0,0.0,65,0.00,,,0.00,WUHU21623XXSP,2013-05-01 09:46:00,
2013-05-01 04:51:00,54.7,43.5,29.93,NNE,22,0.0,0.0,66,0.00,,,0.00,WUHU21623XXSP,2013-05-01 09:51:00,
2013-05-01 04:56:00,54.7,43.5,29.93,NW,315,0.0,0.0,66,0.00,,,0.00,WUHU21623XXSP,2013-05-01 09:56:00,
2013-05-01 05:01:00,55.2,43.6,29.93,NNE,22,0.0,0.0,65,0.00,,,0.00,WUHU21623XXSP,2013-05-01 10:01:00,
2013-05-01 05:06:00,55.2,43.6,29.93,North,0,0.0,0.0,65,0.00,,,0.00,WUHU21623XXSP,2013-05-01 10:06:00,
2013-05-01 05:11:00,55.2,43.6,29.93,WNW,292,0.0,0.0,65,0.00,,,0.00,WUHU21623XXSP,2013-05-01 10:11:00,
2013-05-01 05:16:00,54.7,43.5,29.94,NW,315,0.0,0.0,66,0.00,,,0.00,WUHU21623XXSP,2013-05-01 10:16:00,
2013-05-01 05:21:00,53.8,43.4,29.95,WNW,292,0.0,0.0,68,0.00,,,0.00,WUHU21623XXSP,2013-05-01 10:21:00,
2013-05-01 05:26:00,53.2,43.3,29.95,NW,315,0.0,0.0,69,0.00,,,0.00,WUHU21623XXSP,2013-05-01 10:26:00,
2013-05-01 05:31:00,53.4,43.5,29.95,North,0,0.0,0.0,69,0.00,,,0.00,WUHU21623XXSP,2013-05-01 10:31:00,
2013-05-01 05:36:00,53.2,43.3,29.96,NNW,337,0.0,0.0,69,0.00,,,0.00,WUHU21623XXSP,2013-05-01 10:36:00,
2013-05-01 05:41:00,53.1,43.6,29.96,NNE,22,0.0,0.0,70,0.00,,,0.00,WUHU21623XXSP,2013-05-01 10:41:00,
2013-05-01 05:45:00,53.2,43.7,29.96,WNW,292,0.0,0.0,70,0.00,,,0.00,WUHU21623XXSP,2013-05-01 10:45:00,
2013-05-01 05:50:00,53.2,43.6,29.97,NW,315,0.0,0.0,70,0.00,,,0.00,WUHU21623XXSP,2013-05-01 10:50:00,
2013-05-01 05:55:00,53.4,43.9,29.96,North,0,0.0,0.0,70,0.00,,,0.00,WUHU21623XXSP,2013-05-01 10:55:00,
2013-05-01 06:00:00,53.8,44.1,29.97,North,0,0.0,0.0,69,0.00,,,0.00,WUHU21623XXSP,2013-05-01 11:00:00,
2013-05-01 06:05:00,54.0,44.0,29.97,West,270,0.0,0.0,69,0.00,,,0.00,WUHU21623XXSP,2013-05-01 11:05:00,
2013-05-01 06:10:00,54.1,44.2,29.98,WNW,292,0.0,0.0,69,0.00,,,0.00,WUHU21623XXSP,2013-05-01 11:10:00,
2013-05-01 06:15:00,54.0,44.4,29.98,West,270,0.0,0.0,70,0.00,,,0.00,WUHU21623XXSP,2013-05-01 11:15:00,
2013-05-01 06:20:00,54.1,44.6,29.98,NNE,22,0.0,0.0,69,0.00,,,0.00,WUHU21623XXSP,2013-05-01 11:20:00,
2013-05-01 06:25:00,54.3,44.4,29.98,WNW,292,0.0,0.0,70,0.00,,,0.00,WUHU21623XXSP,2013-05-01 11:25:00,
2013-05-01 06:30:00,54.7,45.1,29.98,NE,45,0.0,0.0,70,0.00,,,0.00,WUHU21623XXSP,2013-05-01 11:30:00,
2013-05-01 06:35:00,55.4,45.0,29.98,NNE,22,0.0,0.0,68,0.00,,,0.00,WUHU21623XXSP,2013-05-01 11:35:00,
2013-05-01 06:40:00,56.1,45.5,29.99,NNE,22,0.0,0.0,68,0.00,,,0.00,WUHU21623XXSP,2013-05-01 11:40:00,
2013-05-01 06:45:00,56.8,46.0,29.99,North,0,0.0,0.0,67,0.00,,,0.00,WUHU21623XXSP,2013-05-01 11:45:00,
2013-05-01 06:50:00,57.4,46.1,29.99,WNW,292,0.0,0.0,66,0.00,,,0.00,WUHU21623XXSP,2013-05-01 11:50:00,
2013-05-01 06:55:00,57.9,46.6,29.98,NNW,337,0.0,0.0,66,0.00,,,0.00,WUHU21623XXSP,2013-05-01 11:55:00,
2013-05-01 07:00:00,57.9,46.2,29.98,NNE,22,0.0,0.0,65,0.00,,,0.00,WUHU21623XXSP,2013-05-01 12:00:00,
2013-05-01 07:05:00,58.3,46.5,30.00,North,0,0.0,0.0,65,0.00,,,0.00,WUHU21623XXSP,2013-05-01 12:05:00,
2013-05-01 07:10:00,58.8,47.0,30.00,NW,315,0.0,0.0,65,0.00,,,0.00,WUHU21623XXSP,2013-05-01 12:10:00,
2013-05-01 07:15:00,58.8,46.6,30.00,NNE,22,2.5,2.5,64,0.00,,,0.00,WUHU21623XXSP,2013-05-01 12:15:00,
2013-05-01 07:20:00,58.8,47.0,30.01,North,0,2.5,5.4,65,0.00,,,0.00,WUHU21623XXSP,2013-05-01 12:20:00,
2013-05-01 07:25:00,58.3,46.3,30.00,North,0,0.0,5.4,64,0.00,,,0.00,WUHU21623XXSP,2013-05-01 12:25:00,
2013-05-01 07:30:00,58.1,46.8,30.00,NE,45,0.0,7.6,66,0.00,,,0.00,WUHU21623XXSP,2013-05-01 12:30:00,
2013-05-01 07:35:00,58.3,46.9,30.02,NE,45,5.8,7.6,66,0.00,,,0.00,WUHU21623XXSP,2013-05-01 12:35:00,
2013-05-01 07:40:00,58.6,47.3,30.01,West,270,0.0,5.8,66,0.00,,,0.00,WUHU21623XXSP,2013-05-01 12:40:00,
2013-05-01 07:45:00,59.0,47.2,30.02,NNE,22,2.2,4.3,65,0.00,,,0.00,WUHU21623XXSP,2013-05-01 12:45:00,
2013-05-01 07:50:00,59.0,47.6,30.02,NE,45,6.3,6.3,66,0.00,,,0.00,WUHU21623XXSP,2013-05-01 12:50:00,
2013-05-01 07:55:00,59.7,48.3,30.02,NNE,22,2.9,6.3,66,0.00,,,0.00,WUHU21623XXSP,2013-05-01 12:55:00,
2013-05-01 08:00:00,60.1,48.7,30.02,NE,45,5.1,6.3,66,0.00,,,0.00,WUHU21623XXSP,2013-05-01 13:00:00,
2013-05-01 08:05:00,60.4,48.2,30.02,NNE,22,4.5,6.9,64,0.00,,,0.00,WUHU21623XXSP,2013-05-01 13:05:00,
2013-05-01 08:10:00,61.0,49.2,30.02,NNE,22,2.5,6.9,65,0.00,,,0.00,WUHU21623XXSP,2013-05-01 13:10:00,
2013-05-01 08:15:00,60.4,47.8,30.02,NNE,22,6.3,7.4,63,0.00,,,0.00,WUHU21623XXSP,2013-05-01 13:15:00,
2013-05-01 08:20:00,61.3,49.5,30.03,ENE,67,0.0,7.4,65,0.00,,,0.00,WUHU21623XXSP,2013-05-01 13:20:00,
2013-05-01 08:25:00,61.5,49.2,30.02,North,0,0.0,6.5,64,0.00,,,0.00,WUHU21623XXSP,2013-05-01 13:25:00,
2013-05-01 08:30:00,62.2,49.6,30.03,NNE,22,4.7,4.7,65,0.00,,,0.00,WUHU21623XXSP,2013-05-01 13:30:00,
2013-05-01 08:35:00,62.4,49.6,30.03,NNE,22,4.9,4.9,63,0.00,,,0.00,WUHU21623XXSP,2013-05-01 13:35:00,
2013-05-01 08:40:00,62.8,50.0,30.02,NNW,337,0.0,4.9,63,0.00,,,0.00,WUHU21623XXSP,2013-05-01 13:40:00,
2013-05-01 08:45:00,63.0,50.3,30.03,NNW,337,0.0,0.0,62,0.00,,,0.00,WUHU21623XXSP,2013-05-01 13:45:00,
2013-05-01 08:50:00,63.1,50.3,30.02,NE,45,2.5,6.7,63,0.00,,,0.00,WUHU21623XXSP,2013-05-01 13:50:00,
2013-05-01 08:55:00,63.7,50.3,30.03,NNE,22,3.8,6.7,63,0.00,,,0.00,WUHU21623XXSP,2013-05-01 13:55:00,
2013-05-01 09:00:00,64.0,50.7,30.03,NE,45,4.0,6.9,62,0.00,,,0.00,WUHU21623XXSP,2013-05-01 14:00:00,
2013-05-01 09:05:00,64.6,50.9,30.03,NNE,22,5.4,6.9,61,0.00,,,0.00,WUHU21623XXSP,2013-05-01 14:05:00,
2013-05-01 09:10:00,64.6,50.4,30.03,NNE,22,5.4,5.4,62,0.00,,,0.00,WUHU21623XXSP,2013-05-01 14:10:00,
2013-05-01 09:15:00,64.2,50.0,30.02,NNE,22,5.8,14.8,60,0.00,,,0.00,WUHU21623XXSP,2013-05-01 14:15:00,
2013-05-01 09:20:00,64.6,50.8,30.03,NE,45,8.3,14.8,61,0.00,,,0.00,WUHU21623XXSP,2013-05-01 14:20:00,
2013-05-01 09:25:00,65.1,50.9,30.03,NE,45,5.8,8.3,60,0.00,,,0.00,WUHU21623XXSP,2013-05-01 14:25:00,
2013-05-01 09:30:00,65.7,51.9,30.03,NE,45,1.8,7.2,61,0.00,,,0.00,WUHU21623XXSP,2013-05-01 14:30:00,
2013-05-01 09:35:00,66.0,51.3,30.03,NNE,22,3.6,5.8,60,0.00,,,0.00,WUHU21623XXSP,2013-05-01 14:35:00,
2013-05-01 09:40:00,66.4,52.4,30.03,NNE,22,3.6,3.6,61,0.00,,,0.00,WUHU21623XXSP,2013-05-01 14:40:00,
2013-05-01 09:45:00,66.6,52.1,30.03,NE,45,8.3,8.3,59,0.00,,,0.00,WUHU21623XXSP,2013-05-01 14:45:00,
2013-05-01 09:50:00,66.6,51.8,30.03,NNE,22,6.0,13.2,59,0.00,,,0.00,WUHU21623XXSP,2013-05-01 14:50:00,
2013-05-01 09:55:00,66.4,51.7,30.04,NE,45,7.8,13.2,59,0.00,,,0.00,WUHU21623XXSP,2013-05-01 14:55:00,
2013-05-01 10:00:00,66.0,51.2,30.03,ENE,67,4.5,7.8,58,0.00,,,0.00,WUHU21623XXSP,2013-05-01 15:00:00,
2013-05-01 10:05:00,66.7,52.0,30.04,NE,45,9.6,9.6,59,0.00,,,0.00,WUHU21623XXSP,2013-05-01 15:05:00,
2013-05-01 10:10:00,66.7,52.0,30.03,ENE,67,9.2,9.6,59,0.00,,,0.00,WUHU21623XXSP,2013-05-01 15:10:00,
2013-05-01 10:15:00,67.1,51.3,30.03,NE,45,6.0,9.6,57,0.00,,,0.00,WUHU21623XXSP,2013-05-01 15:15:00,
2013-05-01 10:20:00,66.9,51.7,30.04,NE,45,12.8,12.8,57,0.00,,,0.00,WUHU21623XXSP,2013-05-01 15:20:00,
2013-05-01 10:25:00,66.7,52.0,30.04,NE,45,11.2,12.8,59,0.00,,,0.00,WUHU21623XXSP,2013-05-01 15:25:00,
2013-05-01 10:30:00,66.9,51.7,30.03,NE,45,3.4,11.2,58,0.00,,,0.00,WUHU21623XXSP,2013-05-01 15:30:00,
2013-05-01 10:35:00,67.6,52.3,30.03,NE,45,4.7,5.4,58,0.00,,,0.00,WUHU21623XXSP,2013-05-01 15:35:00,
2013-05-01 10:40:00,67.8,52.0,30.03,ENE,67,4.7,5.1,57,0.00,,,0.00,WUHU21623XXSP,2013-05-01 15:40:00,
2013-05-01 10:45:00,68.4,52.0,30.03,ENE,67,12.3,12.3,56,0.00,,,0.00,WUHU21623XXSP,2013-05-01 15:45:00,
2013-05-01 10:50:00,68.5,52.7,30.03,NE,45,3.8,12.3,57,0.00,,,0.00,WUHU21623XXSP,2013-05-01 15:50:00,
2013-05-01 10:55:00,68.9,53.0,30.03,NE,45,10.7,12.3,57,0.00,,,0.00,WUHU21623XXSP,2013-05-01 15:55:00,
2013-05-01 11:00:00,68.9,52.0,30.04,ENE,67,4.7,10.7,55,0.00,,,0.00,WUHU21623XXSP,2013-05-01 16:00:00,
2013-05-01 11:05:00,68.7,52.3,30.03,NE,45,4.9,4.9,56,0.00,,,0.00,WUHU21623XXSP,2013-05-01 16:05:00,
2013-05-01 11:10:00,69.1,52.7,30.03,ENE,67,7.4,8.9,56,0.00,,,0.00,WUHU21623XXSP,2013-05-01 16:10:00,
2013-05-01 11:15:00,69.6,53.2,30.03,ESE,112,0.0,8.9,56,0.00,,,0.00,WUHU21623XXSP,2013-05-01 16:15:00,
2013-05-01 11:20:00,70.7,53.7,30.04,NE,45,9.6,9.6,55,0.00,,,0.00,WUHU21623XXSP,2013-05-01 16:20:00,
2013-05-01 11:25:00,70.2,52.7,30.04,ENE,67,4.0,9.6,54,0.00,,,0.00,WUHU21623XXSP,2013-05-01 16:25:00,
2013-05-01 11:30:00,70.0,52.5,30.04,ESE,112,1.3,4.5,54,0.00,,,0.00,WUHU21623XXSP,2013-05-01 16:30:00,
2013-05-01 11:35:00,70.7,53.7,30.03,NE,45,9.2,9.2,55,0.00,,,0.00,WUHU21623XXSP,2013-05-01 16:35:00,
2013-05-01 11:40:00,70.5,53.0,30.03,NE,45,5.6,9.2,54,0.00,,,0.00,WUHU21623XXSP,2013-05-01 16:40:00,
2013-05-01 11:45:00,70.7,53.2,30.03,NNE,22,8.1,8.1,54,0.00,,,0.00,WUHU21623XXSP,2013-05-01 16:45:00,
2013-05-01 11:50:00,71.4,53.8,30.03,NE,45,0.0,8.1,54,0.00,,,0.00,WUHU21623XXSP,2013-05-01 16:50:00,
2013-05-01 11:55:00,71.4,54.3,30.03,ENE,67,2.9,6.0,55,0.00,,,0.00,WUHU21623XXSP,2013-05-01 16:55:00,
2013-05-01 12:00:00,71.4,53.3,30.03,ENE,67,4.3,5.6,53,0.00,,,0.00,WUHU21623XXSP,2013-05-01 17:00:00,
2013-05-01 12:05:00,72.0,53.8,30.03,SSE,157,0.0,6.9,53,0.00,,,0.00,WUHU21623XXSP,2013-05-01 17:05:00,
2013-05-01 12:10:00,72.1,54.0,30.03,West,270,2.0,6.9,53,0.00,,,0.00,WUHU21623XXSP,2013-05-01 17:10:00,
2013-05-01 12:15:00,72.5,54.0,30.03,East,90,0.0,2.0,53,0.00,,,0.00,WUHU21623XXSP,2013-05-01 17:15:00,
2013-05-01 12:20:00,72.9,54.1,30.03,SSE,157,3.8,3.8,52,0.00,,,0.00,WUHU21623XXSP,2013-05-01 17:20:00,
2013-05-01 12:25:00,73.0,54.3,30.04,ESE,112,1.6,3.8,52,0.00,,,0.00,WUHU21623XXSP,2013-05-01 17:25:00,
2013-05-01 12:30:00,72.7,53.5,30.03,SE,135,4.3,7.8,51,0.00,,,0.00,WUHU21623XXSP,2013-05-01 17:30:00,
2013-05-01 12:35:00,72.7,54.0,30.03,SSW,202,0.0,7.8,52,0.00,,,0.00,WUHU21623XXSP,2013-05-01 17:35:00,
2013-05-01 12:40:00,73.4,55.6,30.03,West,270,0.0,4.5,54,0.00,,,0.00,WUHU21623XXSP,2013-05-01 17:40:00,
2013-05-01 12:45:00,73.8,55.5,30.03,ENE,67,9.6,9.6,53,0.00,,,0.00,WUHU21623XXSP,2013-05-01 17:45:00,
2013-05-01 12:50:00,73.6,54.8,30.03,ENE,67,7.6,9.6,52,0.00,,,0.00,WUHU21623XXSP,2013-05-01 17:50:00,
2013-05-01 12:55:00,73.8,54.5,30.03,NE,45,2.5,9.6,51,0.00,,,0.00,WUHU21623XXSP,2013-05-01 17:55:00,
2013-05-01 13:00:00,73.9,54.6,30.03,East,90,2.9,2.9,51,0.00,,,0.00,WUHU21623XXSP,2013-05-01 18:00:00,
2013-05-01 13:05:00,74.8,55.2,30.03,SE,135,2.9,3.8,50,0.00,,,0.00,WUHU21623XXSP,2013-05-01 18:05:00,
2013-05-01 13:10:00,75.7,55.3,30.03,NE,45,0.0,3.8,49,0.00,,,0.00,WUHU21623XXSP,2013-05-01 18:10:00,
2013-05-01 13:15:00,76.1,56.2,30.03,SSW,202,2.5,2.5,50,0.00,,,0.00,WUHU21623XXSP,2013-05-01 18:15:00,
2013-05-01 13:20:00,76.6,55.5,30.03,NE,45,3.6,3.6,48,0.00,,,0.00,WUHU21623XXSP,2013-05-01 18:20:00,
2013-05-01 13:25:00,76.3,56.1,30.04,NNE,22,1.6,3.6,49,0.00,,,0.00,WUHU21623XXSP,2013-05-01 18:25:00,
2013-05-01 13:30:00,75.9,56.2,30.03,East,90,4.5,4.5,50,0.00,,,0.00,WUHU21623XXSP,2013-05-01 18:30:00,
2013-05-01 13:35:00,75.7,55.3,30.03,North,0,2.5,4.5,49,0.00,,,0.00,WUHU21623XXSP,2013-05-01 18:35:00,
2013-05-01 13:40:00,75.9,56.0,30.03,ENE,67,0.0,2.5,50,0.00,,,0.00,WUHU21623XXSP,2013-05-01 18:40:00,
2013-05-01 13:45:00,76.6,56.7,30.04,NE,45,6.9,6.9,50,0.00,,,0.00,WUHU21623XXSP,2013-05-01 18:45:00,
2013-05-01 13:50:00,76.8,56.9,30.03,SSW,202,3.6,6.9,50,0.00,,,0.00,WUHU21623XXSP,2013-05-01 18:50:00,
2013-05-01 13:55:00,77.5,56.3,30.03,SSE,157,0.0,6.9,48,0.00,,,0.00,WUHU21623XXSP,2013-05-01 18:55:00,
2013-05-01 14:00:00,77.9,56.6,30.03,SE,135,0.0,3.6,48,0.00,,,0.00,WUHU21623XXSP,2013-05-01 19:00:00,
2013-05-01 14:05:00,78.1,56.8,30.03,SSW,202,2.0,3.6,48,0.00,,,0.00,WUHU21623XXSP,2013-05-01 19:05:00,
2013-05-01 14:10:00,78.4,57.7,30.03,ESE,112,2.5,2.5,49,0.00,,,0.00,WUHU21623XXSP,2013-05-01 19:10:00,
2013-05-01 14:15:00,78.1,55.5,30.03,East,90,0.0,2.5,46,0.00,,,0.00,WUHU21623XXSP,2013-05-01 19:15:00,
2013-05-01 14:20:00,78.4,57.1,30.03,ENE,67,0.0,2.5,48,0.00,,,0.00,WUHU21623XXSP,2013-05-01 19:20:00,
2013-05-01 14:25:00,79.2,57.7,30.03,SSE,157,1.3,2.5,48,0.00,,,0.00,WUHU21623XXSP,2013-05-01 19:25:00,
2013-05-01 14:30:00,79.7,58.2,30.03,ENE,67,4.0,4.0,48,0.00,,,0.00,WUHU21623XXSP,2013-05-01 19:30:00,
2013-05-01 14:35:00,79.9,57.8,30.02,WSW,247,1.3,4.0,47,0.00,,,0.00,WUHU21623XXSP,2013-05-01 19:35:00,
2013-05-01 14:40:00,79.7,57.0,30.02,WSW,247,3.1,3.1,46,0.00,,,0.00,WUHU21623XXSP,2013-05-01 19:40:00,
2013-05-01 14:45:00,79.7,58.1,30.02,West,270,3.1,3.1,46,0.00,,,0.00,WUHU21623XXSP,2013-05-01 19:45:00,
2013-05-01 14:50:00,80.2,57.5,30.02,SSE,157,0.0,3.1,46,0.00,,,0.00,WUHU21623XXSP,2013-05-01 19:50:00,
2013-05-01 14:55:00,80.8,58.0,30.02,NNW,337,0.0,0.9,46,0.00,,,0.00,WUHU21623XXSP,2013-05-01 19:55:00,
2013-05-01 15:00:00,80.8,58.0,30.02,WSW,247,8.3,8.3,46,0.00,,,0.00,WUHU21623XXSP,2013-05-01 20:00:00,
2013-05-01 15:05:00,80.6,57.8,30.02,SSE,157,3.8,8.3,46,0.00,,,0.00,WUHU21623XXSP,2013-05-01 20:05:00,
2013-05-01 15:10:00,80.8,57.4,30.02,WNW,292,0.0,4.0,45,0.00,,,0.00,WUHU21623XXSP,2013-05-01 20:10:00,
2013-05-01 15:15:00,81.3,59.1,30.02,ESE,112,0.0,2.0,47,0.00,,,0.00,WUHU21623XXSP,2013-05-01 20:15:00,
2013-05-01 15:20:00,81.5,58.6,30.02,SSW,202,0.0,0.0,46,0.00,,,0.00,WUHU21623XXSP,2013-05-01 20:20:00,
2013-05-01 15:25:00,81.1,58.3,30.02,ESE,112,3.4,4.7,46,0.00,,,0.00,WUHU21623XXSP,2013-05-01 20:25:00,
2013-05-01 15:30:00,81.3,57.8,30.02,WSW,247,0.0,4.7,45,0.00,,,0.00,WUHU21623XXSP,2013-05-01 20:30:00,
2013-05-01 15:35:00,80.4,57.7,30.02,WNW,292,0.0,2.2,46,0.00,,,0.00,WUHU21623XXSP,2013-05-01 20:35:00,
2013-05-01 15:40:00,80.8,58.0,30.02,WSW,247,3.4,3.4,46,0.00,,,0.00,WUHU21623XXSP,2013-05-01 20:40:00,
2013-05-01 15:45:00,80.2,57.5,30.02,South,180,0.0,3.4,46,0.00,,,0.00,WUHU21623XXSP,2013-05-01 20:45:00,
2013-05-01 15:50:00,81.3,58.5,30.02,SSE,157,1.8,3.4,46,0.00,,,0.00,WUHU21623XXSP,2013-05-01 20:50:00,
2013-05-01 15:55:00,81.3,58.5,30.02,East,90,1.3,5.1,46,0.00,,,0.00,WUHU21623XXSP,2013-05-01 20:55:00,
2013-05-01 16:00:00,80.4,57.7,30.02,WSW,247,0.0,5.1,46,0.00,,,0.00,WUHU21623XXSP,2013-05-01 21:00:00,
2013-05-01 16:05:00,79.9,57.2,30.02,SW,225,0.0,3.6,46,0.00,,,0.00,WUHU21623XXSP,2013-05-01 21:05:00,
2013-05-01 16:10:00,80.8,58.0,30.01,East,90,1.3,1.3,46,0.00,,,0.00,WUHU21623XXSP,2013-05-01 21:10:00,
2013-05-01 16:15:00,81.0,58.1,30.01,SW,225,3.1,3.1,46,0.00,,,0.00,WUHU21623XXSP,2013-05-01 21:15:00,
2013-05-01 16:20:00,79.7,57.6,30.02,SW,225,3.4,3.4,47,0.00,,,0.00,WUHU21623XXSP,2013-05-01 21:20:00,
2013-05-01 16:25:00,80.6,57.8,30.01,WNW,292,2.0,3.4,46,0.00,,,0.00,WUHU21623XXSP,2013-05-01 21:25:00,
2013-05-01 16:30:00,81.0,58.1,30.01,NNE,22,0.0,2.0,46,0.00,,,0.00,WUHU21623XXSP,2013-05-01 21:30:00,
2013-05-01 16:35:00,82.2,58.0,30.01,SW,225,0.0,0.7,44,0.00,,,0.00,WUHU21623XXSP,2013-05-01 21:35:00,
2013-05-01 16:40:00,82.0,57.9,30.02,West,270,2.2,4.0,44,0.00,,,0.00,WUHU21623XXSP,2013-05-01 21:40:00,
2013-05-01 16:45:00,80.4,57.7,30.02,West,270,1.6,4.0,46,0.00,,,0.00,WUHU21623XXSP,2013-05-01 21:45:00,
2013-05-01 16:50:00,79.7,57.0,30.02,South,180,0.0,1.6,48,0.00,,,0.00,WUHU21623XXSP,2013-05-01 21:50:00,
2013-05-01 16:55:00,79.7,57.6,30.02,SE,135,0.0,0.0,47,0.00,,,0.00,WUHU21623XXSP,2013-05-01 21:55:00,
2013-05-01 17:00:00,80.2,58.1,30.02,North,0,0.0,0.0,47,0.00,,,0.00,WUHU21623XXSP,2013-05-01 22:00:00,
2013-05-01 17:05:00,81.1,58.3,30.02,West,270,2.0,2.0,46,0.00,,,0.00,WUHU21623XXSP,2013-05-01 22:05:00,
2013-05-01 17:10:00,81.0,57.5,30.02,WSW,247,0.0,3.1,45,0.00,,,0.00,WUHU21623XXSP,2013-05-01 22:10:00,
2013-05-01 17:15:00,80.8,57.4,30.02,NW,315,7.4,7.4,45,0.00,,,0.00,WUHU21623XXSP,2013-05-01 22:15:00,
2013-05-01 17:20:00,80.8,58.0,30.01,North,0,0.0,8.3,45,0.00,,,0.00,WUHU21623XXSP,2013-05-01 22:20:00,
2013-05-01 17:25:00,80.4,57.0,30.02,WNW,292,0.0,8.3,45,0.00,,,0.00,WUHU21623XXSP,2013-05-01 22:25:00,
2013-05-01 17:30:00,80.4,57.7,30.02,NNE,22,2.0,3.4,46,0.00,,,0.00,WUHU21623XXSP,2013-05-01 22:30:00,
2013-05-01 17:35:00,80.2,57.5,30.02,North,0,0.0,3.1,46,0.00,,,0.00,WUHU21623XXSP,2013-05-01 22:35:00,
2013-05-01 17:40:00,79.0,56.4,30.02,NNE,22,0.0,1.1,46,0.00,,,0.00,WUHU21623XXSP,2013-05-01 22:40:00,
2013-05-01 17:45:00,77.7,56.5,30.02,North,0,3.1,3.1,48,0.00,,,0.00,WUHU21623XXSP,2013-05-01 22:45:00,
2013-05-01 17:50:00,78.6,56.9,30.03,SSW,202,0.0,3.1,48,0.00,,,0.00,WUHU21623XXSP,2013-05-01 22:50:00,
2013-05-01 17:55:00,78.4,57.1,30.03,NNE,22,13.0,13.0,48,0.00,,,0.00,WUHU21623XXSP,2013-05-01 22:55:00,
2013-05-01 18:00:00,78.1,56.8,30.02,North,0,8.9,13.0,49,0.00,,,0.00,WUHU21623XXSP,2013-05-01 23:00:00,
2013-05-01 18:05:00,77.9,56.6,30.03,WNW,292,3.6,8.9,48,0.00,,,0.00,WUHU21623XXSP,2013-05-01 23:05:00,
2013-05-01 18:10:00,77.5,56.3,30.03,NNE,22,8.1,8.1,48,0.00,,,0.00,WUHU21623XXSP,2013-05-01 23:10:00,
2013-05-01 18:15:00,77.4,56.1,30.03,NNE,22,6.0,11.2,48,0.00,,,0.00,WUHU21623XXSP,2013-05-01 23:15:00,
2013-05-01 18:20:00,77.2,56.0,30.03,WNW,292,0.0,11.2,48,0.00,,,0.00,WUHU21623XXSP,2013-05-01 23:20:00,
2013-05-01 18:25:00,77.5,55.7,30.03,NW,315,0.0,2.5,47,0.00,,,0.00,WUHU21623XXSP,2013-05-01 23:25:00,
2013-05-01 18:30:00,77.5,55.1,30.03,NE,45,0.0,2.5,46,0.00,,,0.00,WUHU21623XXSP,2013-05-01 23:30:00,
2013-05-01 18:35:00,76.8,53.8,30.03,West,270,0.9,0.9,45,0.00,,,0.00,WUHU21623XXSP,2013-05-01 23:35:00,
2013-05-01 18:40:00,75.4,52.5,30.04,NNE,22,1.3,1.3,45,0.00,,,0.00,WUHU21623XXSP,2013-05-01 23:40:00,
2013-05-01 18:45:00,74.8,52.6,30.04,NNE,22,10.1,10.1,46,0.00,,,0.00,WUHU21623XXSP,2013-05-01 23:45:00,
2013-05-01 18:50:00,73.2,51.1,30.04,NNE,22,4.3,10.1,46,0.00,,,0.00,WUHU21623XXSP,2013-05-01 23:50:00,
2013-05-01 18:55:00,73.0,50.9,30.04,NNW,337,4.5,4.5,46,0.00,,,0.00,WUHU21623XXSP,2013-05-01 23:55:00,
2013-05-01 19:00:00,72.5,50.4,30.04,NW,315,0.0,4.5,46,0.00,,,0.00,WUHU21623XXSP,2013-05-02 00:00:00,
2013-05-01 19:05:00,72.1,50.7,30.04,SSE,157,0.0,4.7,47,0.00,,,0.00,WUHU21623XXSP,2013-05-02 00:05:00,
2013-05-01 19:10:00,71.8,51.0,30.05,NNE,22,3.8,4.7,48,0.00,,,0.00,WUHU21623XXSP,2013-05-02 00:10:00,
2013-05-01 19:15:00,71.4,50.6,30.05,North,0,2.7,3.8,48,0.00,,,0.00,WUHU21623XXSP,2013-05-02 00:15:00,
2013-05-01 19:20:00,70.3,49.7,30.05,West,270,0.9,2.7,48,0.00,,,0.00,WUHU21623XXSP,2013-05-02 00:20:00,
2013-05-01 19:25:00,69.4,48.8,30.06,NW,315,4.9,4.9,48,0.00,,,0.00,WUHU21623XXSP,2013-05-02 00:25:00,
2013-05-01 19:30:00,68.7,48.8,30.06,ESE,112,0.0,4.9,49,0.00,,,0.00,WUHU21623XXSP,2013-05-02 00:30:00,
2013-05-01 19:35:00,67.8,48.6,30.06,SE,135,2.2,5.4,50,0.00,,,0.00,WUHU21623XXSP,2013-05-02 00:35:00,
2013-05-01 19:40:00,67.6,48.4,30.06,North,0,0.0,5.4,50,0.00,,,0.00,WUHU21623XXSP,2013-05-02 00:40:00,
2013-05-01 19:45:00,66.9,48.3,30.07,NNW,337,0.0,10.5,51,0.00,,,0.00,WUHU21623XXSP,2013-05-02 00:45:00,
2013-05-01 19:50:00,66.4,48.3,30.08,NE,45,5.8,10.5,52,0.00,,,0.00,WUHU21623XXSP,2013-05-02 00:50:00,
2013-05-01 19:55:00,65.8,47.7,30.08,NNW,337,2.5,6.0,52,0.00,,,0.00,WUHU21623XXSP,2013-05-02 00:55:00,
2013-05-01 20:00:00,65.3,47.2,30.08,West,270,0.0,2.7,52,0.00,,,0.00,WUHU21623XXSP,2013-05-02 01:00:00,
2013-05-01 20:05:00,64.6,47.4,30.08,NNE,22,0.0,2.7,54,0.00,,,0.00,WUHU21623XXSP,2013-05-02 01:05:00,
2013-05-01 20:10:00,64.2,47.1,30.09,NW,315,0.0,2.2,54,0.00,,,0.00,WUHU21623XXSP,2013-05-02 01:10:00,
2013-05-01 20:15:00,63.7,47.1,30.09,NW,315,0.0,3.6,55,0.00,,,0.00,WUHU21623XXSP,2013-05-02 01:15:00,
2013-05-01 20:20:00,63.1,46.6,30.10,NNW,337,5.1,5.1,55,0.00,,,0.00,WUHU21623XXSP,2013-05-02 01:20:00,
2013-05-01 20:25:00,63.0,46.6,30.10,West,270,6.3,6.3,56,0.00,,,0.00,WUHU21623XXSP,2013-05-02 01:25:00,
2013-05-01 20:30:00,62.6,46.6,30.10,NNE,22,3.1,7.6,56,0.00,,,0.00,WUHU21623XXSP,2013-05-02 01:30:00,
2013-05-01 20:35:00,62.1,46.6,30.10,NNW,337,3.8,7.6,57,0.00,,,0.00,WUHU21623XXSP,2013-05-02 01:35:00,
2013-05-01 20:40:00,61.7,46.3,30.10,East,90,1.6,5.1,57,0.00,,,0.00,WUHU21623XXSP,2013-05-02 01:40:00,
2013-05-01 20:45:00,61.5,46.1,30.11,NNW,337,4.5,4.5,57,0.00,,,0.00,WUHU21623XXSP,2013-05-02 01:45:00,
2013-05-01 20:50:00,61.0,46.3,30.11,NNW,337,2.2,4.5,58,0.00,,,0.00,WUHU21623XXSP,2013-05-02 01:50:00,
2013-05-01 20:55:00,60.6,46.3,30.11,North,0,0.9,4.3,59,0.00,,,0.00,WUHU21623XXSP,2013-05-02 01:55:00,
2013-05-01 21:00:00,60.6,46.3,30.12,WNW,292,0.7,4.5,59,0.00,,,0.00,WUHU21623XXSP,2013-05-02 02:00:00,
2013-05-01 21:05:00,60.4,46.1,30.11,East,90,2.0,4.5,59,0.00,,,0.00,WUHU21623XXSP,2013-05-02 02:05:00,
2013-05-01 21:10:00,60.1,45.7,30.12,NE,45,2.5,8.1,59,0.00,,,0.00,WUHU21623XXSP,2013-05-02 02:10:00,
2013-05-01 21:15:00,59.7,45.9,30.12,NNE,22,3.1,12.3,60,0.00,,,0.00,WUHU21623XXSP,2013-05-02 02:15:00,
2013-05-01 21:20:00,59.5,45.7,30.12,SSW,202,0.0,12.3,60,0.00,,,0.00,WUHU21623XXSP,2013-05-02 02:20:00,
2013-05-01 21:25:00,59.4,45.5,30.12,NNW,337,3.8,5.1,60,0.00,,,0.00,WUHU21623XXSP,2013-05-02 02:25:00,
2013-05-01 21:30:00,59.4,45.5,30.12,ENE,67,4.7,7.4,60,0.00,,,0.00,WUHU21623XXSP,2013-05-02 02:30:00,
2013-05-01 21:35:00,59.0,45.1,30.13,ENE,67,2.5,7.4,60,0.00,,,0.00,WUHU21623XXSP,2013-05-02 02:35:00,
2013-05-01 21:40:00,58.6,45.2,30.14,NNE,22,4.5,4.5,61,0.00,,,0.00,WUHU21623XXSP,2013-05-02 02:40:00,
2013-05-01 21:45:00,57.0,44.1,30.14,NNE,22,0.0,4.5,62,0.00,,,0.00,WUHU21623XXSP,2013-05-02 02:45:00,
2013-05-01 21:50:00,56.1,43.6,30.14,North,0,3.1,3.8,62,0.00,,,0.00,WUHU21623XXSP,2013-05-02 02:50:00,
2013-05-01 21:55:00,55.2,43.2,30.14,WNW,292,2.9,3.1,64,0.00,,,0.00,WUHU21623XXSP,2013-05-02 02:55:00,
2013-05-01 22:00:00,54.3,42.8,30.15,NW,315,7.4,7.4,65,0.00,,,0.00,WUHU21623XXSP,2013-05-02 03:00:00,
2013-05-01 22:05:00,53.8,42.4,30.15,NNW,337,2.9,7.4,66,0.00,,,0.00,WUHU21623XXSP,2013-05-02 03:05:00,
2013-05-01 22:10:00,53.4,42.3,30.15,NNE,22,3.4,5.4,66,0.00,,,0.00,WUHU21623XXSP,2013-05-02 03:10:00,
2013-05-01 22:15:00,52.3,41.7,30.15,NNE,22,0.0,5.4,67,0.00,,,0.00,WUHU21623XXSP,2013-05-02 03:15:00,
2013-05-01 22:20:00,51.6,41.4,30.15,NNE,22,6.0,6.0,67,0.00,,,0.00,WUHU21623XXSP,2013-05-02 03:20:00,
2013-05-01 22:25:00,51.3,41.5,30.16,SW,225,0.0,6.0,69,0.00,,,0.00,WUHU21623XXSP,2013-05-02 03:25:00,
2013-05-01 22:30:00,50.9,41.1,30.16,North,0,0.0,4.7,69,0.00,,,0.00,WUHU21623XXSP,2013-05-02 03:30:00,
2013-05-01 22:35:00,50.7,40.9,30.16,NNE,22,3.1,4.7,69,0.00,,,0.00,WUHU21623XXSP,2013-05-02 03:35:00,
2013-05-01 22:40:00,50.4,41.0,30.15,NNE,22,2.2,3.1,70,0.00,,,0.00,WUHU21623XXSP,2013-05-02 03:40:00,
2013-05-01 22:45:00,50.2,40.8,30.16,WNW,292,5.8,5.8,71,0.00,,,0.00,WUHU21623XXSP,2013-05-02 03:45:00,
2013-05-01 22:50:00,49.8,40.8,30.15,North,0,0.0,5.8,71,0.00,,,0.00,WUHU21623XXSP,2013-05-02 03:50:00,
2013-05-01 22:55:00,49.8,40.8,30.15,ESE,112,4.3,5.8,71,0.00,,,0.00,WUHU21623XXSP,2013-05-02 03:55:00,
2013-05-01 23:00:00,49.8,41.1,30.15,WNW,292,6.5,6.5,72,0.00,,,0.00,WUHU21623XXSP,2013-05-02 04:00:00,
2013-05-01 23:01:00,49.8,41.1,30.15,WNW,292,6.5,6.5,72,0.00,,,0.00,WUHU21623XXSP,2013-05-02 04:01:00,
2013-05-01 23:06:00,49.6,41.0,30.15,North,0,1.6,7.6,72,0.00,,,0.00,WUHU21623XXSP,2013-05-02 04:06:00,
2013-05-01 23:11:00,49.6,41.0,30.15,NNE,22,7.8,7.8,72,0.00,,,0.00,WUHU21623XXSP,2013-05-02 04:11:00,
2013-05-01 23:16:00,49.6,41.0,30.16,NE,45,5.1,7.8,72,0.00,,,0.00,WUHU21623XXSP,2013-05-02 04:16:00,
2013-05-01 23:21:00,49.6,41.0,30.15,WNW,292,3.4,5.4,72,0.00,,,0.00,WUHU21623XXSP,2013-05-02 04:21:00,
2013-05-01 23:26:00,49.5,41.0,30.15,West,270,0.9,5.4,72,0.00,,,0.00,WUHU21623XXSP,2013-05-02 04:26:00,
2013-05-01 23:31:00,49.3,40.6,30.16,North,0,5.8,5.8,72,0.00,,,0.00,WUHU21623XXSP,2013-05-02 04:31:00,
2013-05-01 23:36:00,49.6,41.0,30.16,North,0,5.8,5.8,72,0.00,,,0.00,WUHU21623XXSP,2013-05-02 04:36:00,
2013-05-01 23:41:00,49.6,41.0,30.16,WNW,292,0.0,5.8,72,0.00,,,0.00,WUHU21623XXSP,2013-05-02 04:41:00,
2013-05-01 23:46:00,49.6,41.3,30.16,NNW,337,1.6,2.2,73,0.00,,,0.00,WUHU21623XXSP,2013-05-02 04:46:00,
2013-05-01 23:51:00,49.6,41.3,30.16,NNE,22,5.8,5.8,73,0.00,,,0.00,WUHU21623XXSP,2013-05-02 04:51:00,
2013-05-01 23:56:00,49.6,41.3,30.16,NNE,22,8.9,8.9,73,0.00,,,0.00,WUHU21623XXSP,2013-05-02 04:56:00,